sensor_id;sensor_type;location;lat;lon;timestamp;P1;durP1;ratioP1;P2;durP2;ratioP2
3054;SDS011;1537;52.018;8.542;2023-06-14T00:01:49;7.70;;;3.10;;
3054;SDS011;1537;52.018;8.542;2023-06-14T00:05:13;7.63;;;3.30;;
3054;SDS011;1537;52.018;8.542;2023-06-14T00:08:37;7.53;;;3.73;;
3054;SDS011;1537;52.018;8.542;2023-06-14T00:12:01;7.40;;;3.07;;
3054;SDS011;1537;52.018;8.542;2023-06-14T00:15:28;9.10;;;3.77;;
3054;SDS011;1537;52.018;8.542;2023-06-14T00:18:54;7.23;;;3.27;;
3054;SDS011;1537;52.018;8.542;2023-06-14T00:22:18;7.57;;;3.50;;
3054;SDS011;1537;52.018;8.542;2023-06-14T00:25:42;7.90;;;2.90;;
3054;SDS011;1537;52.018;8.542;2023-06-14T00:29:05;8.73;;;3.37;;
3054;SDS011;1537;52.018;8.542;2023-06-14T00:32:29;9.30;;;3.80;;
3054;SDS011;1537;52.018;8.542;2023-06-14T00:35:54;7.47;;;3.47;;
3054;SDS011;1537;52.018;8.542;2023-06-14T00:39:18;11.20;;;3.60;;
3054;SDS011;1537;52.018;8.542;2023-06-14T00:42:41;7.87;;;3.80;;
3054;SDS011;1537;52.018;8.542;2023-06-14T00:46:05;10.30;;;3.50;;
3054;SDS011;1537;52.018;8.542;2023-06-14T00:49:31;7.00;;;3.63;;
3054;SDS011;1537;52.018;8.542;2023-06-14T00:52:57;8.90;;;3.40;;
3054;SDS011;1537;52.018;8.542;2023-06-14T00:56:21;6.97;;;3.13;;
3054;SDS011;1537;52.018;8.542;2023-06-14T00:59:46;6.17;;;3.00;;
3054;SDS011;1537;52.018;8.542;2023-06-14T01:03:11;8.90;;;3.40;;
3054;SDS011;1537;52.018;8.542;2023-06-14T01:06:39;7.60;;;3.47;;
3054;SDS011;1537;52.018;8.542;2023-06-14T01:10:21;8.47;;;4.20;;
3054;SDS011;1537;52.018;8.542;2023-06-14T01:13:54;8.17;;;3.17;;
3054;SDS011;1537;52.018;8.542;2023-06-14T01:17:19;5.87;;;3.23;;
3054;SDS011;1537;52.018;8.542;2023-06-14T01:20:47;6.63;;;3.53;;
3054;SDS011;1537;52.018;8.542;2023-06-14T01:24:13;12.23;;;3.63;;
3054;SDS011;1537;52.018;8.542;2023-06-14T01:27:37;6.93;;;3.00;;
3054;SDS011;1537;52.018;8.542;2023-06-14T01:31:01;6.93;;;3.53;;
3054;SDS011;1537;52.018;8.542;2023-06-14T01:34:27;8.17;;;3.13;;
3054;SDS011;1537;52.018;8.542;2023-06-14T01:37:51;10.23;;;4.43;;
3054;SDS011;1537;52.018;8.542;2023-06-14T01:41:17;10.80;;;3.30;;
3054;SDS011;1537;52.018;8.542;2023-06-14T01:44:43;6.10;;;2.93;;
3054;SDS011;1537;52.018;8.542;2023-06-14T01:48:07;7.80;;;3.13;;
3054;SDS011;1537;52.018;8.542;2023-06-14T01:51:31;7.33;;;3.30;;
3054;SDS011;1537;52.018;8.542;2023-06-14T01:54:55;6.03;;;3.73;;
3054;SDS011;1537;52.018;8.542;2023-06-14T01:58:21;9.40;;;3.37;;
3054;SDS011;1537;52.018;8.542;2023-06-14T02:01:45;7.63;;;3.63;;
3054;SDS011;1537;52.018;8.542;2023-06-14T02:05:09;6.30;;;3.20;;
3054;SDS011;1537;52.018;8.542;2023-06-14T02:08:36;6.73;;;3.83;;
3054;SDS011;1537;52.018;8.542;2023-06-14T02:12:00;7.90;;;3.30;;
3054;SDS011;1537;52.018;8.542;2023-06-14T02:15:25;7.70;;;3.90;;
3054;SDS011;1537;52.018;8.542;2023-06-14T02:18:55;8.90;;;3.67;;
3054;SDS011;1537;52.018;8.542;2023-06-14T02:22:19;6.10;;;3.27;;
3054;SDS011;1537;52.018;8.542;2023-06-14T02:25:43;10.40;;;4.37;;
3054;SDS011;1537;52.018;8.542;2023-06-14T02:29:08;7.80;;;3.30;;
3054;SDS011;1537;52.018;8.542;2023-06-14T02:32:35;7.80;;;3.53;;
3054;SDS011;1537;52.018;8.542;2023-06-14T02:36:00;6.77;;;3.97;;
3054;SDS011;1537;52.018;8.542;2023-06-14T02:39:25;7.73;;;3.70;;
3054;SDS011;1537;52.018;8.542;2023-06-14T02:42:49;7.87;;;3.67;;
3054;SDS011;1537;52.018;8.542;2023-06-14T02:46:12;8.53;;;3.93;;
3054;SDS011;1537;52.018;8.542;2023-06-14T02:49:38;6.73;;;3.20;;
3054;SDS011;1537;52.018;8.542;2023-06-14T02:53:02;7.50;;;3.30;;
3054;SDS011;1537;52.018;8.542;2023-06-14T02:56:25;6.13;;;3.30;;
3054;SDS011;1537;52.018;8.542;2023-06-14T02:59:49;6.90;;;3.43;;
3054;SDS011;1537;52.018;8.542;2023-06-14T03:03:13;6.27;;;3.10;;
3054;SDS011;1537;52.018;8.542;2023-06-14T03:06:45;7.27;;;3.57;;
3054;SDS011;1537;52.018;8.542;2023-06-14T03:10:14;8.63;;;3.67;;
3054;SDS011;1537;52.018;8.542;2023-06-14T03:13:39;9.33;;;3.90;;
3054;SDS011;1537;52.018;8.542;2023-06-14T03:17:04;8.53;;;3.87;;
3054;SDS011;1537;52.018;8.542;2023-06-14T03:20:31;9.67;;;3.90;;
3054;SDS011;1537;52.018;8.542;2023-06-14T03:23:56;8.70;;;4.33;;
3054;SDS011;1537;52.018;8.542;2023-06-14T03:27:20;9.57;;;4.07;;
3054;SDS011;1537;52.018;8.542;2023-06-14T03:30:44;8.73;;;3.23;;
3054;SDS011;1537;52.018;8.542;2023-06-14T03:34:09;10.60;;;4.03;;
3054;SDS011;1537;52.018;8.542;2023-06-14T03:37:34;6.50;;;3.60;;
3054;SDS011;1537;52.018;8.542;2023-06-14T03:41:00;7.97;;;3.70;;
3054;SDS011;1537;52.018;8.542;2023-06-14T03:44:24;7.27;;;3.80;;
3054;SDS011;1537;52.018;8.542;2023-06-14T03:47:50;6.77;;;3.30;;
3054;SDS011;1537;52.018;8.542;2023-06-14T03:51:14;9.13;;;4.20;;
3054;SDS011;1537;52.018;8.542;2023-06-14T03:54:38;11.40;;;4.20;;
3054;SDS011;1537;52.018;8.542;2023-06-14T03:58:24;9.60;;;3.93;;
3054;SDS011;1537;52.018;8.542;2023-06-14T04:01:48;9.47;;;4.20;;
3054;SDS011;1537;52.018;8.542;2023-06-14T04:05:12;12.37;;;3.80;;
3054;SDS011;1537;52.018;8.542;2023-06-14T04:08:41;7.77;;;3.57;;
3054;SDS011;1537;52.018;8.542;2023-06-14T04:12:07;7.80;;;3.93;;
3054;SDS011;1537;52.018;8.542;2023-06-14T04:15:34;14.30;;;3.57;;
3054;SDS011;1537;52.018;8.542;2023-06-14T04:18:59;8.03;;;3.70;;
3054;SDS011;1537;52.018;8.542;2023-06-14T04:22:23;8.50;;;3.87;;
3054;SDS011;1537;52.018;8.542;2023-06-14T04:25:51;9.40;;;3.47;;
3054;SDS011;1537;52.018;8.542;2023-06-14T04:29:17;8.30;;;3.47;;
3054;SDS011;1537;52.018;8.542;2023-06-14T04:32:49;8.57;;;3.80;;
3054;SDS011;1537;52.018;8.542;2023-06-14T04:36:16;7.17;;;3.83;;
3054;SDS011;1537;52.018;8.542;2023-06-14T04:39:42;11.53;;;4.20;;
3054;SDS011;1537;52.018;8.542;2023-06-14T04:43:06;10.77;;;4.30;;
3054;SDS011;1537;52.018;8.542;2023-06-14T04:46:30;9.67;;;3.60;;
3054;SDS011;1537;52.018;8.542;2023-06-14T04:49:57;13.40;;;3.90;;
3054;SDS011;1537;52.018;8.542;2023-06-14T04:53:24;14.07;;;4.17;;
3054;SDS011;1537;52.018;8.542;2023-06-14T04:56:51;7.87;;;3.40;;
3054;SDS011;1537;52.018;8.542;2023-06-14T05:00:19;10.87;;;3.63;;
3054;SDS011;1537;52.018;8.542;2023-06-14T05:03:43;11.43;;;3.80;;
3054;SDS011;1537;52.018;8.542;2023-06-14T05:07:12;8.03;;;4.10;;
3054;SDS011;1537;52.018;8.542;2023-06-14T05:10:36;6.20;;;2.90;;
3054;SDS011;1537;52.018;8.542;2023-06-14T05:14:01;8.30;;;3.70;;
3054;SDS011;1537;52.018;8.542;2023-06-14T05:17:25;7.87;;;3.77;;
3054;SDS011;1537;52.018;8.542;2023-06-14T05:20:50;5.87;;;3.00;;
3054;SDS011;1537;52.018;8.542;2023-06-14T05:24:15;9.47;;;3.00;;
3054;SDS011;1537;52.018;8.542;2023-06-14T05:27:40;6.37;;;2.90;;
3054;SDS011;1537;52.018;8.542;2023-06-14T05:31:04;6.17;;;3.10;;
3054;SDS011;1537;52.018;8.542;2023-06-14T05:34:27;8.63;;;3.10;;
3054;SDS011;1537;52.018;8.542;2023-06-14T05:37:51;5.13;;;2.47;;
3054;SDS011;1537;52.018;8.542;2023-06-14T05:41:17;6.47;;;2.70;;
3054;SDS011;1537;52.018;8.542;2023-06-14T05:44:42;5.10;;;2.60;;
3054;SDS011;1537;52.018;8.542;2023-06-14T05:48:06;7.90;;;2.80;;
3054;SDS011;1537;52.018;8.542;2023-06-14T05:51:30;6.27;;;2.97;;
3054;SDS011;1537;52.018;8.542;2023-06-14T05:54:54;6.97;;;2.77;;
3054;SDS011;1537;52.018;8.542;2023-06-14T05:58:18;6.40;;;3.00;;
3054;SDS011;1537;52.018;8.542;2023-06-14T06:01:42;8.30;;;2.73;;
3054;SDS011;1537;52.018;8.542;2023-06-14T06:05:06;5.47;;;2.43;;
3054;SDS011;1537;52.018;8.542;2023-06-14T06:08:31;5.40;;;2.30;;
3054;SDS011;1537;52.018;8.542;2023-06-14T06:11:56;5.20;;;2.03;;
3054;SDS011;1537;52.018;8.542;2023-06-14T06:15:21;6.17;;;2.40;;
3054;SDS011;1537;52.018;8.542;2023-06-14T06:18:44;5.73;;;2.10;;
3054;SDS011;1537;52.018;8.542;2023-06-14T06:22:08;4.43;;;1.73;;
3054;SDS011;1537;52.018;8.542;2023-06-14T06:25:32;5.17;;;1.93;;
3054;SDS011;1537;52.018;8.542;2023-06-14T06:28:55;4.80;;;2.20;;
3054;SDS011;1537;52.018;8.542;2023-06-14T06:32:21;5.97;;;2.13;;
3054;SDS011;1537;52.018;8.542;2023-06-14T06:35:44;5.20;;;1.97;;
3054;SDS011;1537;52.018;8.542;2023-06-14T06:39:08;7.40;;;2.30;;
3054;SDS011;1537;52.018;8.542;2023-06-14T06:42:33;8.97;;;2.60;;
3054;SDS011;1537;52.018;8.542;2023-06-14T06:45:59;5.07;;;1.83;;
3054;SDS011;1537;52.018;8.542;2023-06-14T06:49:24;8.40;;;2.00;;
3054;SDS011;1537;52.018;8.542;2023-06-14T06:52:48;5.33;;;2.30;;
3054;SDS011;1537;52.018;8.542;2023-06-14T06:56:12;5.73;;;1.93;;
3054;SDS011;1537;52.018;8.542;2023-06-14T06:59:36;6.33;;;2.40;;
3054;SDS011;1537;52.018;8.542;2023-06-14T07:03:00;8.17;;;3.20;;
3054;SDS011;1537;52.018;8.542;2023-06-14T07:06:27;5.10;;;2.40;;
3054;SDS011;1537;52.018;8.542;2023-06-14T07:09:52;5.30;;;2.63;;
3054;SDS011;1537;52.018;8.542;2023-06-14T07:13:16;6.07;;;2.30;;
3054;SDS011;1537;52.018;8.542;2023-06-14T07:16:39;6.80;;;2.80;;
3054;SDS011;1537;52.018;8.542;2023-06-14T07:20:04;6.20;;;2.77;;
3054;SDS011;1537;52.018;8.542;2023-06-14T07:23:36;5.23;;;1.70;;
3054;SDS011;1537;52.018;8.542;2023-06-14T07:27:00;6.97;;;2.90;;
3054;SDS011;1537;52.018;8.542;2023-06-14T07:30:25;6.57;;;2.70;;
3054;SDS011;1537;52.018;8.542;2023-06-14T07:33:48;6.63;;;2.23;;
3054;SDS011;1537;52.018;8.542;2023-06-14T07:37:12;5.53;;;2.50;;
3054;SDS011;1537;52.018;8.542;2023-06-14T07:40:37;8.73;;;2.30;;
3054;SDS011;1537;52.018;8.542;2023-06-14T07:44:01;8.93;;;2.30;;
3054;SDS011;1537;52.018;8.542;2023-06-14T07:47:25;5.60;;;2.13;;
3054;SDS011;1537;52.018;8.542;2023-06-14T07:50:49;5.43;;;2.53;;
3054;SDS011;1537;52.018;8.542;2023-06-14T07:54:12;7.30;;;3.03;;
3054;SDS011;1537;52.018;8.542;2023-06-14T07:57:37;7.57;;;2.80;;
3054;SDS011;1537;52.018;8.542;2023-06-14T08:01:01;6.30;;;2.50;;
3054;SDS011;1537;52.018;8.542;2023-06-14T08:04:31;4.60;;;1.80;;
3054;SDS011;1537;52.018;8.542;2023-06-14T08:07:55;10.17;;;2.80;;
3054;SDS011;1537;52.018;8.542;2023-06-14T08:11:22;5.37;;;2.03;;
3054;SDS011;1537;52.018;8.542;2023-06-14T08:14:48;5.10;;;2.37;;
3054;SDS011;1537;52.018;8.542;2023-06-14T08:18:30;24.03;;;4.30;;
3054;SDS011;1537;52.018;8.542;2023-06-14T08:21:54;6.10;;;2.40;;
3054;SDS011;1537;52.018;8.542;2023-06-14T08:25:18;8.00;;;2.60;;
3054;SDS011;1537;52.018;8.542;2023-06-14T08:28:41;5.63;;;2.13;;
3054;SDS011;1537;52.018;8.542;2023-06-14T08:32:07;6.23;;;2.40;;
3054;SDS011;1537;52.018;8.542;2023-06-14T08:35:31;8.80;;;2.20;;
3054;SDS011;1537;52.018;8.542;2023-06-14T08:38:55;6.47;;;2.00;;
3054;SDS011;1537;52.018;8.542;2023-06-14T08:42:18;6.80;;;2.30;;
3054;SDS011;1537;52.018;8.542;2023-06-14T08:45:53;5.07;;;2.07;;
3054;SDS011;1537;52.018;8.542;2023-06-14T08:49:23;8.60;;;2.63;;
3054;SDS011;1537;52.018;8.542;2023-06-14T08:52:53;7.40;;;2.00;;
3054;SDS011;1537;52.018;8.542;2023-06-14T08:56:19;7.50;;;2.40;;
3054;SDS011;1537;52.018;8.542;2023-06-14T08:59:46;7.53;;;2.00;;
3054;SDS011;1537;52.018;8.542;2023-06-14T09:03:14;6.97;;;2.47;;
3054;SDS011;1537;52.018;8.542;2023-06-14T09:06:40;4.90;;;2.23;;
3054;SDS011;1537;52.018;8.542;2023-06-14T09:10:09;6.10;;;2.30;;
3054;SDS011;1537;52.018;8.542;2023-06-14T09:13:34;10.03;;;2.60;;
3054;SDS011;1537;52.018;8.542;2023-06-14T09:16:58;5.30;;;1.70;;
3054;SDS011;1537;52.018;8.542;2023-06-14T09:20:23;6.73;;;1.90;;
3054;SDS011;1537;52.018;8.542;2023-06-14T09:23:49;6.77;;;2.13;;
3054;SDS011;1537;52.018;8.542;2023-06-14T09:27:14;5.10;;;2.17;;
3054;SDS011;1537;52.018;8.542;2023-06-14T09:30:38;10.03;;;3.07;;
3054;SDS011;1537;52.018;8.542;2023-06-14T09:34:02;5.23;;;2.63;;
3054;SDS011;1537;52.018;8.542;2023-06-14T09:37:27;5.57;;;3.53;;
3054;SDS011;1537;52.018;8.542;2023-06-14T09:40:53;7.93;;;3.60;;
3054;SDS011;1537;52.018;8.542;2023-06-14T09:44:19;6.50;;;3.57;;
3054;SDS011;1537;52.018;8.542;2023-06-14T09:47:48;6.30;;;3.43;;
3054;SDS011;1537;52.018;8.542;2023-06-14T09:51:27;5.30;;;3.37;;
3054;SDS011;1537;52.018;8.542;2023-06-14T09:54:52;5.50;;;3.10;;
3054;SDS011;1537;52.018;8.542;2023-06-14T09:58:19;6.20;;;2.53;;
3054;SDS011;1537;52.018;8.542;2023-06-14T10:01:46;5.20;;;2.90;;
3054;SDS011;1537;52.018;8.542;2023-06-14T10:05:11;6.70;;;3.50;;
3054;SDS011;1537;52.018;8.542;2023-06-14T10:08:38;7.60;;;3.00;;
3054;SDS011;1537;52.018;8.542;2023-06-14T10:12:04;4.83;;;2.23;;
3054;SDS011;1537;52.018;8.542;2023-06-14T10:15:30;5.00;;;2.63;;
3054;SDS011;1537;52.018;8.542;2023-06-14T10:19:00;4.63;;;1.80;;
3054;SDS011;1537;52.018;8.542;2023-06-14T10:22:32;6.20;;;2.70;;
3054;SDS011;1537;52.018;8.542;2023-06-14T10:26:01;8.90;;;3.70;;
3054;SDS011;1537;52.018;8.542;2023-06-14T10:29:25;6.67;;;3.47;;
3054;SDS011;1537;52.018;8.542;2023-06-14T10:33:04;5.73;;;3.47;;
3054;SDS011;1537;52.018;8.542;2023-06-14T10:36:30;9.30;;;2.50;;
3054;SDS011;1537;52.018;8.542;2023-06-14T10:39:56;5.13;;;2.43;;
3054;SDS011;1537;52.018;8.542;2023-06-14T10:43:21;17.60;;;3.03;;
3054;SDS011;1537;52.018;8.542;2023-06-14T10:46:46;4.57;;;1.90;;
3054;SDS011;1537;52.018;8.542;2023-06-14T10:50:12;5.80;;;2.30;;
3054;SDS011;1537;52.018;8.542;2023-06-14T10:53:39;21.07;;;4.53;;
3054;SDS011;1537;52.018;8.542;2023-06-14T10:57:03;5.00;;;2.40;;
3054;SDS011;1537;52.018;8.542;2023-06-14T11:00:30;5.97;;;2.53;;
3054;SDS011;1537;52.018;8.542;2023-06-14T11:04:06;6.57;;;2.20;;
3054;SDS011;1537;52.018;8.542;2023-06-14T11:07:36;5.37;;;2.60;;
3054;SDS011;1537;52.018;8.542;2023-06-14T11:11:09;10.73;;;3.70;;
3054;SDS011;1537;52.018;8.542;2023-06-14T11:14:33;9.60;;;2.50;;
3054;SDS011;1537;52.018;8.542;2023-06-14T11:17:57;12.33;;;3.43;;
3054;SDS011;1537;52.018;8.542;2023-06-14T11:21:24;7.13;;;2.17;;
3054;SDS011;1537;52.018;8.542;2023-06-14T11:24:54;7.50;;;2.90;;
3054;SDS011;1537;52.018;8.542;2023-06-14T11:28:19;6.27;;;2.50;;
3054;SDS011;1537;52.018;8.542;2023-06-14T11:31:44;7.03;;;3.20;;
3054;SDS011;1537;52.018;8.542;2023-06-14T11:35:08;17.80;;;3.87;;
3054;SDS011;1537;52.018;8.542;2023-06-14T11:38:35;14.73;;;3.90;;
3054;SDS011;1537;52.018;8.542;2023-06-14T11:42:01;15.83;;;3.40;;
3054;SDS011;1537;52.018;8.542;2023-06-14T11:45:26;7.50;;;3.17;;
3054;SDS011;1537;52.018;8.542;2023-06-14T11:48:51;6.73;;;2.80;;
3054;SDS011;1537;52.018;8.542;2023-06-14T11:52:16;11.87;;;3.90;;
3054;SDS011;1537;52.018;8.542;2023-06-14T11:55:41;6.90;;;3.30;;
3054;SDS011;1537;52.018;8.542;2023-06-14T11:59:08;7.40;;;2.90;;
3054;SDS011;1537;52.018;8.542;2023-06-14T12:02:32;4.93;;;2.40;;
3054;SDS011;1537;52.018;8.542;2023-06-14T12:06:03;7.23;;;2.30;;
3054;SDS011;1537;52.018;8.542;2023-06-14T12:09:29;6.50;;;2.70;;
3054;SDS011;1537;52.018;8.542;2023-06-14T12:12:56;6.40;;;2.80;;
3054;SDS011;1537;52.018;8.542;2023-06-14T12:16:29;18.50;;;4.20;;
3054;SDS011;1537;52.018;8.542;2023-06-14T12:19:53;9.30;;;3.70;;
3054;SDS011;1537;52.018;8.542;2023-06-14T12:23:17;6.37;;;3.33;;
3054;SDS011;1537;52.018;8.542;2023-06-14T12:26:41;5.10;;;2.67;;
3054;SDS011;1537;52.018;8.542;2023-06-14T12:30:06;9.20;;;3.30;;
3054;SDS011;1537;52.018;8.542;2023-06-14T12:33:33;8.77;;;3.43;;
3054;SDS011;1537;52.018;8.542;2023-06-14T12:36:57;9.40;;;3.20;;
3054;SDS011;1537;52.018;8.542;2023-06-14T12:40:20;4.60;;;2.70;;
3054;SDS011;1537;52.018;8.542;2023-06-14T12:43:44;7.27;;;3.67;;
3054;SDS011;1537;52.018;8.542;2023-06-14T12:47:08;6.63;;;2.13;;
3054;SDS011;1537;52.018;8.542;2023-06-14T12:50:33;6.50;;;2.20;;
3054;SDS011;1537;52.018;8.542;2023-06-14T12:53:57;8.00;;;2.27;;
3054;SDS011;1537;52.018;8.542;2023-06-14T12:57:21;19.13;;;3.80;;
3054;SDS011;1537;52.018;8.542;2023-06-14T13:00:46;10.43;;;3.07;;
3054;SDS011;1537;52.018;8.542;2023-06-14T13:04:10;17.17;;;4.30;;
3054;SDS011;1537;52.018;8.542;2023-06-14T13:07:35;6.63;;;2.77;;
3054;SDS011;1537;52.018;8.542;2023-06-14T13:10:59;7.60;;;3.43;;
3054;SDS011;1537;52.018;8.542;2023-06-14T13:14:23;9.97;;;3.30;;
3054;SDS011;1537;52.018;8.542;2023-06-14T13:17:48;5.57;;;2.47;;
3054;SDS011;1537;52.018;8.542;2023-06-14T13:21:12;7.23;;;2.93;;
3054;SDS011;1537;52.018;8.542;2023-06-14T13:24:38;5.50;;;2.60;;
3054;SDS011;1537;52.018;8.542;2023-06-14T13:28:02;6.23;;;2.90;;
3054;SDS011;1537;52.018;8.542;2023-06-14T13:31:27;5.90;;;2.80;;
3054;SDS011;1537;52.018;8.542;2023-06-14T13:34:52;5.90;;;3.03;;
3054;SDS011;1537;52.018;8.542;2023-06-14T13:38:16;6.10;;;1.97;;
3054;SDS011;1537;52.018;8.542;2023-06-14T13:41:41;5.40;;;2.50;;
3054;SDS011;1537;52.018;8.542;2023-06-14T13:45:05;7.73;;;2.00;;
3054;SDS011;1537;52.018;8.542;2023-06-14T13:48:30;4.80;;;1.87;;
3054;SDS011;1537;52.018;8.542;2023-06-14T13:51:53;5.03;;;2.10;;
3054;SDS011;1537;52.018;8.542;2023-06-14T13:55:17;5.97;;;1.90;;
3054;SDS011;1537;52.018;8.542;2023-06-14T13:58:42;5.73;;;2.20;;
3054;SDS011;1537;52.018;8.542;2023-06-14T14:02:06;5.40;;;3.30;;
3054;SDS011;1537;52.018;8.542;2023-06-14T14:05:31;5.70;;;2.03;;
3054;SDS011;1537;52.018;8.542;2023-06-14T14:08:55;15.73;;;2.83;;
3054;SDS011;1537;52.018;8.542;2023-06-14T14:12:19;5.90;;;2.90;;
3054;SDS011;1537;52.018;8.542;2023-06-14T14:15:44;5.87;;;2.57;;
3054;SDS011;1537;52.018;8.542;2023-06-14T14:19:08;6.37;;;2.80;;
3054;SDS011;1537;52.018;8.542;2023-06-14T14:22:32;6.13;;;2.77;;
3054;SDS011;1537;52.018;8.542;2023-06-14T14:25:55;6.57;;;2.60;;
3054;SDS011;1537;52.018;8.542;2023-06-14T14:29:20;5.33;;;2.20;;
3054;SDS011;1537;52.018;8.542;2023-06-14T14:32:49;7.73;;;3.03;;
3054;SDS011;1537;52.018;8.542;2023-06-14T14:36:34;8.07;;;2.63;;
3054;SDS011;1537;52.018;8.542;2023-06-14T14:40:19;6.30;;;3.70;;
3054;SDS011;1537;52.018;8.542;2023-06-14T14:43:43;6.23;;;2.77;;
3054;SDS011;1537;52.018;8.542;2023-06-14T14:47:07;8.37;;;3.10;;
3054;SDS011;1537;52.018;8.542;2023-06-14T14:50:32;7.90;;;3.60;;
3054;SDS011;1537;52.018;8.542;2023-06-14T14:53:56;6.70;;;2.97;;
3054;SDS011;1537;52.018;8.542;2023-06-14T14:57:20;5.60;;;3.47;;
3054;SDS011;1537;52.018;8.542;2023-06-14T15:00:44;13.50;;;6.37;;
3054;SDS011;1537;52.018;8.542;2023-06-14T15:04:09;5.20;;;3.50;;
3054;SDS011;1537;52.018;8.542;2023-06-14T15:07:34;6.17;;;4.23;;
3054;SDS011;1537;52.018;8.542;2023-06-14T15:10:58;6.70;;;3.87;;
3054;SDS011;1537;52.018;8.542;2023-06-14T15:14:24;9.23;;;4.73;;
3054;SDS011;1537;52.018;8.542;2023-06-14T15:17:48;8.20;;;4.20;;
3054;SDS011;1537;52.018;8.542;2023-06-14T15:21:12;7.50;;;4.00;;
3054;SDS011;1537;52.018;8.542;2023-06-14T15:24:37;12.10;;;3.80;;
3054;SDS011;1537;52.018;8.542;2023-06-14T15:28:05;6.40;;;3.00;;
3054;SDS011;1537;52.018;8.542;2023-06-14T15:31:28;8.33;;;3.40;;
3054;SDS011;1537;52.018;8.542;2023-06-14T15:34:52;8.07;;;3.17;;
3054;SDS011;1537;52.018;8.542;2023-06-14T15:38:16;9.20;;;3.00;;
3054;SDS011;1537;52.018;8.542;2023-06-14T15:41:41;10.37;;;4.40;;
3054;SDS011;1537;52.018;8.542;2023-06-14T15:45:05;5.83;;;3.60;;
3054;SDS011;1537;52.018;8.542;2023-06-14T15:48:29;6.53;;;3.30;;
3054;SDS011;1537;52.018;8.542;2023-06-14T15:51:53;10.53;;;3.87;;
3054;SDS011;1537;52.018;8.542;2023-06-14T15:55:17;8.70;;;3.30;;
3054;SDS011;1537;52.018;8.542;2023-06-14T15:58:42;5.87;;;3.60;;
3054;SDS011;1537;52.018;8.542;2023-06-14T16:02:06;6.43;;;3.63;;
3054;SDS011;1537;52.018;8.542;2023-06-14T16:05:31;5.97;;;2.73;;
3054;SDS011;1537;52.018;8.542;2023-06-14T16:08:55;6.87;;;3.33;;
3054;SDS011;1537;52.018;8.542;2023-06-14T16:12:19;6.33;;;3.30;;
3054;SDS011;1537;52.018;8.542;2023-06-14T16:15:44;12.40;;;3.87;;
3054;SDS011;1537;52.018;8.542;2023-06-14T16:19:08;6.93;;;3.60;;
3054;SDS011;1537;52.018;8.542;2023-06-14T16:22:31;6.87;;;3.30;;
3054;SDS011;1537;52.018;8.542;2023-06-14T16:25:55;7.37;;;3.90;;
3054;SDS011;1537;52.018;8.542;2023-06-14T16:29:19;10.73;;;4.50;;
3054;SDS011;1537;52.018;8.542;2023-06-14T16:32:44;8.37;;;3.20;;
3054;SDS011;1537;52.018;8.542;2023-06-14T16:36:07;10.07;;;4.50;;
3054;SDS011;1537;52.018;8.542;2023-06-14T16:39:31;6.87;;;3.77;;
3054;SDS011;1537;52.018;8.542;2023-06-14T16:42:55;6.80;;;3.70;;
3054;SDS011;1537;52.018;8.542;2023-06-14T16:46:27;8.20;;;4.00;;
3054;SDS011;1537;52.018;8.542;2023-06-14T16:49:53;6.50;;;3.30;;
3054;SDS011;1537;52.018;8.542;2023-06-14T16:53:17;6.47;;;3.30;;
3054;SDS011;1537;52.018;8.542;2023-06-14T16:56:40;5.97;;;3.90;;
3054;SDS011;1537;52.018;8.542;2023-06-14T17:00:04;7.20;;;4.00;;
3054;SDS011;1537;52.018;8.542;2023-06-14T17:03:29;6.70;;;3.23;;
3054;SDS011;1537;52.018;8.542;2023-06-14T17:06:55;10.53;;;4.27;;
3054;SDS011;1537;52.018;8.542;2023-06-14T17:10:19;6.90;;;3.80;;
3054;SDS011;1537;52.018;8.542;2023-06-14T17:13:43;13.37;;;4.43;;
3054;SDS011;1537;52.018;8.542;2023-06-14T17:17:07;6.90;;;3.97;;
3054;SDS011;1537;52.018;8.542;2023-06-14T17:20:31;7.40;;;3.80;;
3054;SDS011;1537;52.018;8.542;2023-06-14T17:23:56;10.63;;;4.00;;
3054;SDS011;1537;52.018;8.542;2023-06-14T17:27:20;6.80;;;3.73;;
3054;SDS011;1537;52.018;8.542;2023-06-14T17:30:43;6.77;;;3.50;;
3054;SDS011;1537;52.018;8.542;2023-06-14T17:34:07;5.90;;;3.70;;
3054;SDS011;1537;52.018;8.542;2023-06-14T17:37:31;7.83;;;4.03;;
3054;SDS011;1537;52.018;8.542;2023-06-14T17:40:56;7.93;;;3.37;;
3054;SDS011;1537;52.018;8.542;2023-06-14T17:44:22;7.47;;;4.00;;
3054;SDS011;1537;52.018;8.542;2023-06-14T17:47:46;11.63;;;4.27;;
3054;SDS011;1537;52.018;8.542;2023-06-14T17:51:12;12.60;;;3.73;;
3054;SDS011;1537;52.018;8.542;2023-06-14T17:54:37;15.10;;;3.90;;
3054;SDS011;1537;52.018;8.542;2023-06-14T17:58:02;9.50;;;4.27;;
3054;SDS011;1537;52.018;8.542;2023-06-14T18:01:28;6.90;;;4.00;;
3054;SDS011;1537;52.018;8.542;2023-06-14T18:04:52;10.30;;;4.50;;
3054;SDS011;1537;52.018;8.542;2023-06-14T18:08:15;10.90;;;4.27;;
3054;SDS011;1537;52.018;8.542;2023-06-14T18:11:39;8.43;;;3.93;;
3054;SDS011;1537;52.018;8.542;2023-06-14T18:15:05;8.50;;;4.27;;
3054;SDS011;1537;52.018;8.542;2023-06-14T18:18:29;6.93;;;3.87;;
3054;SDS011;1537;52.018;8.542;2023-06-14T18:21:53;7.40;;;3.60;;
3054;SDS011;1537;52.018;8.542;2023-06-14T18:25:17;9.13;;;3.97;;
3054;SDS011;1537;52.018;8.542;2023-06-14T18:28:41;8.83;;;4.33;;
3054;SDS011;1537;52.018;8.542;2023-06-14T18:32:06;8.90;;;3.83;;
3054;SDS011;1537;52.018;8.542;2023-06-14T18:35:30;6.60;;;3.43;;
3054;SDS011;1537;52.018;8.542;2023-06-14T18:38:54;8.10;;;3.43;;
3054;SDS011;1537;52.018;8.542;2023-06-14T18:42:18;7.43;;;3.90;;
3054;SDS011;1537;52.018;8.542;2023-06-14T18:45:42;8.80;;;3.83;;
3054;SDS011;1537;52.018;8.542;2023-06-14T18:49:07;6.90;;;4.17;;
3054;SDS011;1537;52.018;8.542;2023-06-14T18:52:31;6.20;;;3.63;;
3054;SDS011;1537;52.018;8.542;2023-06-14T18:55:55;8.67;;;4.57;;
3054;SDS011;1537;52.018;8.542;2023-06-14T18:59:19;9.60;;;4.00;;
3054;SDS011;1537;52.018;8.542;2023-06-14T19:02:43;7.03;;;4.10;;
3054;SDS011;1537;52.018;8.542;2023-06-14T19:06:08;7.97;;;4.43;;
3054;SDS011;1537;52.018;8.542;2023-06-14T19:09:32;12.13;;;5.43;;
3054;SDS011;1537;52.018;8.542;2023-06-14T19:12:56;10.83;;;5.03;;
3054;SDS011;1537;52.018;8.542;2023-06-14T19:16:19;11.23;;;4.70;;
3054;SDS011;1537;52.018;8.542;2023-06-14T19:19:44;12.27;;;3.73;;
3054;SDS011;1537;52.018;8.542;2023-06-14T19:23:09;12.13;;;4.40;;
3054;SDS011;1537;52.018;8.542;2023-06-14T19:26:33;13.80;;;5.20;;
3054;SDS011;1537;52.018;8.542;2023-06-14T19:29:57;10.93;;;5.07;;
3054;SDS011;1537;52.018;8.542;2023-06-14T19:33:20;10.80;;;4.70;;
3054;SDS011;1537;52.018;8.542;2023-06-14T19:36:45;7.80;;;4.67;;
3054;SDS011;1537;52.018;8.542;2023-06-14T19:40:11;8.70;;;4.57;;
3054;SDS011;1537;52.018;8.542;2023-06-14T19:43:36;10.20;;;5.53;;
3054;SDS011;1537;52.018;8.542;2023-06-14T19:47:00;7.57;;;4.17;;
3054;SDS011;1537;52.018;8.542;2023-06-14T19:50:24;10.53;;;5.00;;
3054;SDS011;1537;52.018;8.542;2023-06-14T19:53:48;7.80;;;3.90;;
3054;SDS011;1537;52.018;8.542;2023-06-14T19:57:13;6.87;;;3.87;;
3054;SDS011;1537;52.018;8.542;2023-06-14T20:00:37;10.30;;;4.80;;
3054;SDS011;1537;52.018;8.542;2023-06-14T20:04:01;15.10;;;5.13;;
3054;SDS011;1537;52.018;8.542;2023-06-14T20:07:24;12.00;;;4.80;;
3054;SDS011;1537;52.018;8.542;2023-06-14T20:10:48;8.20;;;3.83;;
3054;SDS011;1537;52.018;8.542;2023-06-14T20:14:13;7.87;;;4.90;;
3054;SDS011;1537;52.018;8.542;2023-06-14T20:17:38;8.17;;;4.40;;
3054;SDS011;1537;52.018;8.542;2023-06-14T20:21:02;7.67;;;4.43;;
3054;SDS011;1537;52.018;8.542;2023-06-14T20:24:26;9.60;;;5.07;;
3054;SDS011;1537;52.018;8.542;2023-06-14T20:27:50;21.33;;;11.67;;
3054;SDS011;1537;52.018;8.542;2023-06-14T20:31:15;11.33;;;5.20;;
3054;SDS011;1537;52.018;8.542;2023-06-14T20:34:41;9.07;;;5.40;;
3054;SDS011;1537;52.018;8.542;2023-06-14T20:38:05;12.37;;;5.37;;
3054;SDS011;1537;52.018;8.542;2023-06-14T20:41:29;10.90;;;5.97;;
3054;SDS011;1537;52.018;8.542;2023-06-14T20:44:54;9.93;;;4.43;;
3054;SDS011;1537;52.018;8.542;2023-06-14T20:48:22;10.43;;;5.50;;
3054;SDS011;1537;52.018;8.542;2023-06-14T20:51:47;12.23;;;5.60;;
3054;SDS011;1537;52.018;8.542;2023-06-14T20:55:12;8.07;;;4.73;;
3054;SDS011;1537;52.018;8.542;2023-06-14T20:58:38;9.87;;;5.80;;
3054;SDS011;1537;52.018;8.542;2023-06-14T21:02:02;11.43;;;4.97;;
3054;SDS011;1537;52.018;8.542;2023-06-14T21:05:27;11.80;;;5.63;;
3054;SDS011;1537;52.018;8.542;2023-06-14T21:08:51;12.83;;;5.80;;
3054;SDS011;1537;52.018;8.542;2023-06-14T21:12:16;10.57;;;6.00;;